Time;durP1;ratioP1;P1;durP2;ratioP2;P2;SDS_P1;SDS_P2;PMS_P1;PMS_P2;Temp;Humidity;BMP_temperature;BMP_pressure;BME280_temperature;BME280_humidity;BME280_pressure;Samples;Min_cycle;Max_cycle;Signal;HPM_P1;HPM_P2
2022/12/14 00:01:09;;;;;;;8.40;7.60;;;13.40;46.30;;;;;;5054336;28;20179;-69
2022/12/14 00:03:35;;;;;;;9.10;8.00;;;13.40;46.30;;;;;;5054388;28;20190;-70
2022/12/14 00:06:10;;;;;;;8.52;7.63;;;13.40;46.30;;;;;;5053747;28;20179;-70
2022/12/14 00:08:35;;;;;;;8.25;7.43;;;13.40;46.30;;;;;;5054032;28;20262;-69
2022/12/14 00:11:01;;;;;;;8.93;8.02;;;13.30;46.30;;;;;;5054358;28;20266;-69
2022/12/14 00:13:26;;;;;;;9.55;8.05;;;13.30;46.40;;;;;;5053289;28;20314;-69
2022/12/14 00:15:52;;;;;;;9.45;8.52;;;13.20;46.40;;;;;;5053759;28;20225;-69
2022/12/14 00:18:17;;;;;;;9.43;8.10;;;13.10;46.40;;;;;;5054147;28;20210;-69
2022/12/14 00:20:43;;;;;;;9.32;8.20;;;13.10;46.50;;;;;;5053108;28;20171;-69
2022/12/14 00:23:09;;;;;;;8.90;8.05;;;13.10;46.50;;;;;;5054126;28;20232;-69
2022/12/14 00:25:34;;;;;;;8.27;7.43;;;13.10;46.50;;;;;;5052559;28;20633;-70
2022/12/14 00:28:00;;;;;;;8.65;7.75;;;13.20;46.50;;;;;;5053184;28;20245;-70
2022/12/14 00:30:25;;;;;;;8.80;7.90;;;13.20;46.50;;;;;;5054196;28;20203;-70
2022/12/14 00:32:51;;;;;;;8.02;7.22;;;13.20;46.40;;;;;;5053488;28;20214;-68
2022/12/14 00:35:17;;;;;;;9.55;7.90;;;13.30;46.40;;;;;;5053203;28;20193;-69
2022/12/14 00:37:42;;;;;;;8.32;7.53;;;13.30;46.30;;;;;;5053486;28;20179;-68
2022/12/14 00:40:08;;;;;;;8.57;7.70;;;13.30;46.30;;;;;;5053819;28;20645;-69
2022/12/14 00:42:34;;;;;;;8.38;7.57;;;13.40;46.30;;;;;;5052641;28;20225;-70
2022/12/14 00:45:01;;;;;;;7.38;6.68;;;13.40;46.20;;;;;;5053840;28;20554;-70
2022/12/14 00:47:26;;;;;;;8.50;7.70;;;13.40;46.30;;;;;;5053584;28;20557;-70
2022/12/14 00:49:52;;;;;;;7.72;6.97;;;13.30;46.30;;;;;;5052696;28;20175;-70
2022/12/14 00:52:17;;;;;;;8.25;7.45;;;13.20;46.30;;;;;;5053654;28;20697;-71
2022/12/14 00:54:43;;;;;;;8.38;7.50;;;13.20;46.40;;;;;;5053194;28;20175;-70
2022/12/14 00:57:09;;;;;;;8.38;7.35;;;13.20;46.30;;;;;;5052934;28;20183;-69
2022/12/14 00:59:34;;;;;;;7.53;6.80;;;13.10;46.30;;;;;;5053143;28;20672;-70
2022/12/14 01:02:00;;;;;;;8.35;7.50;;;13.10;46.40;;;;;;5051687;28;20633;-69
2022/12/14 01:04:26;;;;;;;7.30;6.60;;;13.10;46.50;;;;;;5053365;28;20179;-70
2022/12/14 01:06:52;;;;;;;8.07;7.28;;;13.20;46.50;;;;;;5052965;28;20175;-69
2022/12/14 01:09:18;;;;;;;8.02;7.00;;;13.20;46.50;;;;;;5052788;28;20190;-70
2022/12/14 01:11:44;;;;;;;8.02;7.18;;;13.20;46.40;;;;;;5052735;28;20211;-69
2022/12/14 01:14:10;;;;;;;8.80;7.05;;;13.20;46.30;;;;;;5053349;28;20194;-68
2022/12/14 01:16:35;;;;;;;7.28;6.35;;;13.30;46.40;;;;;;5051038;28;20175;-69
2022/12/14 01:19:02;;;;;;;8.43;7.15;;;13.40;46.30;;;;;;5053115;28;20222;-68
2022/12/14 01:21:28;;;;;;;8.23;7.40;;;13.30;46.20;;;;;;5053039;28;20178;-70
2022/12/14 01:23:58;;;;;;;7.32;6.63;;;13.30;46.10;;;;;;5052073;28;20272;-69
2022/12/14 01:26:25;;;;;;;7.78;6.97;;;13.30;46.20;;;;;;5052842;28;20175;-70
2022/12/14 01:28:51;;;;;;;7.93;6.80;;;13.30;46.20;;;;;;5052893;28;20269;-70
2022/12/14 01:31:19;;;;;;;7.45;6.75;;;13.20;46.30;;;;;;5052208;28;20669;-70
2022/12/14 01:33:45;;;;;;;7.68;6.88;;;13.10;46.20;;;;;;5052736;28;20201;-69
2022/12/14 01:36:12;;;;;;;7.90;7.13;;;13.10;46.20;;;;;;5052772;28;20175;-69
2022/12/14 01:38:38;;;;;;;7.82;7.13;;;13.10;46.40;;;;;;5051732;28;20214;-70
2022/12/14 01:41:04;;;;;;;7.28;6.57;;;13.10;46.50;;;;;;5052992;28;20297;-70
2022/12/14 01:44:14;;;;;;;7.35;6.65;;;13.10;46.50;;;;;;5053081;28;20198;-70
2022/12/14 01:46:44;;;;;;;7.15;6.45;;;13.10;46.40;;;;;;5043989;28;20270;-71
2022/12/14 01:49:19;;;;;;;7.22;6.50;;;13.20;46.40;;;;;;5052900;28;20689;-70
2022/12/14 01:51:47;;;;;;;6.65;6.03;;;13.20;46.30;;;;;;5051966;28;20232;-70
2022/12/14 01:54:13;;;;;;;8.32;7.53;;;13.20;46.20;;;;;;5051436;28;20594;-70
2022/12/14 01:56:39;;;;;;;7.25;6.25;;;13.30;46.20;;;;;;5052262;28;20214;-69
2022/12/14 01:59:08;;;;;;;7.43;6.50;;;13.30;46.20;;;;;;5050663;28;20672;-70
2022/12/14 02:01:34;;;;;;;7.32;6.63;;;13.30;46.10;;;;;;5052529;28;20173;-69
2022/12/14 02:03:59;;;;;;;7.85;6.75;;;13.40;46.10;;;;;;5052485;28;20269;-69
2022/12/14 02:06:27;;;;;;;7.13;6.43;;;13.30;46.00;;;;;;5050884;28;20180;-70
2022/12/14 02:08:53;;;;;;;7.00;6.35;;;13.30;46.00;;;;;;5051204;28;20185;-69
2022/12/14 02:11:39;;;;;;;7.15;6.50;;;13.30;46.10;;;;;;5052666;28;20266;-69
2022/12/14 02:14:05;;;;;;;6.70;6.00;;;13.20;46.10;;;;;;5054206;28;20197;-68
2022/12/14 02:16:30;;;;;;;7.13;6.43;;;13.10;46.00;;;;;;5056147;28;20241;-69
2022/12/14 02:18:56;;;;;;;7.80;7.07;;;13.10;46.10;;;;;;5056498;28;20313;-68
2022/12/14 02:21:48;;;;;;;7.50;6.80;;;13.10;46.30;;;;;;5055820;28;20710;-68
2022/12/14 02:24:33;;;;;;;6.65;5.78;;;13.10;46.30;;;;;;5055395;28;20236;-70
2022/12/14 02:27:17;;;;;;;7.15;6.45;;;13.10;46.30;;;;;;5055781;28;20179;-70
2022/12/14 02:29:44;;;;;;;6.95;6.25;;;13.20;46.30;;;;;;5055981;28;20199;-69
2022/12/14 02:32:48;;;;;;;6.70;6.10;;;13.20;46.20;;;;;;5055350;28;20189;-69
2022/12/14 02:35:34;;;;;;;6.97;6.28;;;13.20;46.10;;;;;;5055467;28;20187;-69
2022/12/14 02:38:21;;;;;;;7.28;6.22;;;13.30;46.10;;;;;;5056000;28;20214;-68
2022/12/14 02:41:05;;;;;;;7.28;6.53;;;13.30;46.00;;;;;;5055177;28;20179;-68
2022/12/14 02:43:49;;;;;;;6.50;5.78;;;13.30;45.90;;;;;;5054581;28;20515;-70
2022/12/14 02:46:27;;;;;;;6.78;6.07;;;13.40;45.90;;;;;;5055860;28;20645;-70
2022/12/14 02:49:19;;;;;;;6.90;6.20;;;13.40;45.80;;;;;;5053767;28;20175;-69
2022/12/14 02:52:11;;;;;;;6.88;6.18;;;13.30;45.80;;;;;;5054225;28;20543;-70
2022/12/14 02:54:47;;;;;;;6.63;5.78;;;13.30;46.00;;;;;;5048723;28;20194;-70
2022/12/14 02:57:25;;;;;;;7.80;6.90;;;13.20;45.90;;;;;;5054547;28;20691;-69
2022/12/14 02:59:53;;;;;;;6.53;5.93;;;13.10;46.00;;;;;;5054069;28;20571;-69
2022/12/14 03:02:18;;;;;;;6.78;6.07;;;13.10;46.10;;;;;;5053691;28;20183;-69
2022/12/14 03:04:47;;;;;;;6.40;5.78;;;13.10;46.10;;;;;;5054231;28;20175;-68
2022/12/14 03:07:32;;;;;;;6.57;5.97;;;13.10;46.10;;;;;;5054413;28;20175;-69
2022/12/14 03:10:13;;;;;;;6.28;5.68;;;13.10;46.10;;;;;;5054726;28;20202;-69
2022/12/14 03:12:40;;;;;;;6.85;6.10;;;13.20;46.10;;;;;;5053752;28;20270;-69
2022/12/14 03:15:07;;;;;;;6.15;5.55;;;13.20;46.00;;;;;;5054365;28;20204;-68
2022/12/14 03:17:33;;;;;;;6.60;6.00;;;13.30;46.00;;;;;;5052965;28;20207;-68
2022/12/14 03:20:07;;;;;;;6.30;5.70;;;13.30;45.90;;;;;;5054175;28;20218;-68
2022/12/14 03:22:37;;;;;;;6.93;6.18;;;13.30;45.80;;;;;;5053299;28;20576;-68
2022/12/14 03:25:14;;;;;;;6.72;6.03;;;13.30;45.70;;;;;;5052995;28;20599;-69
2022/12/14 03:27:51;;;;;;;6.15;5.63;;;13.40;45.80;;;;;;5054967;28;20171;-70
2022/12/14 03:30:16;;;;;;;5.95;5.35;;;13.40;45.80;;;;;;5053281;28;20233;-70
2022/12/14 03:32:47;;;;;;;6.47;5.88;;;13.30;45.70;;;;;;5053692;28;20621;-69
2022/12/14 03:35:19;;;;;;;7.32;6.53;;;13.30;45.70;;;;;;5053897;28;20198;-69
2022/12/14 03:37:59;;;;;;;5.78;5.28;;;13.20;45.70;;;;;;5052647;28;20180;-69
2022/12/14 03:40:32;;;;;;;7.25;6.55;;;13.20;45.70;;;;;;5053839;28;20190;-69
2022/12/14 03:43:02;;;;;;;6.20;5.60;;;13.10;45.80;;;;;;5053813;28;20186;-69
2022/12/14 03:45:41;;;;;;;6.10;5.50;;;13.10;45.80;;;;;;5053078;28;20262;-70
2022/12/14 03:48:09;;;;;;;6.55;5.88;;;13.10;45.90;;;;;;5053624;28;20179;-70
2022/12/14 03:51:01;;;;;;;7.55;6.45;;;13.10;46.00;;;;;;5053926;28;20258;-70
2022/12/14 03:53:37;;;;;;;6.35;5.65;;;13.10;46.00;;;;;;5053332;28;20187;-70
2022/12/14 03:56:30;;;;;;;6.28;5.68;;;13.10;45.90;;;;;;5053615;28;20536;-69
2022/12/14 03:59:12;;;;;;;5.95;5.43;;;13.20;45.70;;;;;;5053781;28;20224;-69
2022/12/14 04:02:05;;;;;;;6.40;5.80;;;13.30;45.70;;;;;;5054109;28;20648;-69
2022/12/14 04:04:56;;;;;;;6.57;5.97;;;13.30;45.70;;;;;;5053490;28;20535;-70
2022/12/14 04:07:47;;;;;;;6.43;5.75;;;13.30;45.70;;;;;;5054704;28;20186;-69
2022/12/14 04:18:58;;;;;;;6.10;5.45;;;13.40;45.60;;;;;;5052886;28;20225;-69
2022/12/14 04:21:30;;;;;;;6.82;5.43;;;13.30;45.60;;;;;;5053022;28;20175;-68
2022/12/14 04:26:50;;;;;;;6.13;5.57;;;13.20;45.70;;;;;;5052111;28;20182;-70
2022/12/14 04:32:11;;;;;;;6.28;5.53;;;13.10;45.60;;;;;;5053959;28;20181;-68
2022/12/14 04:34:37;;;;;;;6.85;6.25;;;13.10;45.60;;;;;;5051660;28;20712;-69
2022/12/14 04:37:05;;;;;;;6.50;5.90;;;13.10;45.70;;;;;;5052693;28;20203;-68
2022/12/14 04:39:50;;;;;;;6.40;5.80;;;13.10;45.60;;;;;;5053483;28;20297;-69
2022/12/14 04:42:16;;;;;;;5.60;5.10;;;13.20;45.70;;;;;;5052643;28;20179;-69
2022/12/14 04:44:44;;;;;;;6.00;5.40;;;13.20;45.70;;;;;;5052431;28;20171;-69
2022/12/14 04:47:10;;;;;;;6.10;5.50;;;13.20;45.60;;;;;;5051806;28;20285;-70
2022/12/14 04:49:39;;;;;;;5.55;4.95;;;13.30;45.60;;;;;;5051943;28;20633;-70
2022/12/14 04:52:17;;;;;;;5.95;5.45;;;13.30;45.50;;;;;;5052301;28;20175;-70
2022/12/14 04:54:55;;;;;;;6.15;5.55;;;13.30;45.40;;;;;;5052296;28;20216;-69
2022/12/14 04:57:35;;;;;;;5.82;5.32;;;13.40;46.00;;;;;;5053647;28;20270;-69
2022/12/14 05:00:01;;;;;;;5.78;5.07;;;13.40;45.30;;;;;;5052318;28;20364;-69
2022/12/14 05:03:03;;;;;;;5.85;5.25;;;13.50;45.90;;;;;;5052619;28;20689;-69
2022/12/14 05:06:05;;;;;;;6.05;5.55;;;13.50;45.20;;;;;;5053384;28;20245;-69
2022/12/14 05:09:00;;;;;;;6.57;5.90;;;13.40;45.20;;;;;;5051109;28;20656;-70
2022/12/14 05:11:28;;;;;;;6.15;5.55;;;13.40;45.20;;;;;;5051639;28;20533;-69
2022/12/14 05:13:53;;;;;;;5.95;5.35;;;13.30;45.20;;;;;;5052704;28;20227;-68
2022/12/14 05:16:20;;;;;;;5.57;4.97;;;13.30;45.30;;;;;;5052586;28;20266;-69
2022/12/14 05:18:46;;;;;;;5.80;5.22;;;13.20;45.40;;;;;;5051741;28;20286;-68
2022/12/14 05:21:45;;;;;;;5.18;4.68;;;13.10;45.30;;;;;;5053004;28;20226;-69
2022/12/14 05:23:58;;;;;;;5.97;5.38;;;13.10;45.40;;;;;;5052215;28;20191;-69
2022/12/14 05:26:24;;;;;;;5.28;4.85;;;13.10;45.50;;;;;;5051760;28;20637;-70
2022/12/14 05:28:49;;;;;;;5.32;4.82;;;13.20;45.40;;;;;;5052693;28;20194;-69
2022/12/14 05:31:15;;;;;;;5.95;5.35;;;13.20;45.40;;;;;;5052555;28;20171;-69
2022/12/14 05:33:40;;;;;;;5.70;5.10;;;13.20;45.40;;;;;;5052807;28;20628;-68
2022/12/14 05:36:06;;;;;;;5.55;5.00;;;13.30;45.40;;;;;;5052256;28;20172;-68
2022/12/14 05:38:32;;;;;;;5.68;5.18;;;13.30;45.30;;;;;;5052725;28;20207;-69
2022/12/14 05:40:57;;;;;;;5.05;4.65;;;13.30;45.20;;;;;;5053004;28;20183;-69
2022/12/14 05:43:23;;;;;;;5.80;5.20;;;13.40;45.20;;;;;;5052279;28;20175;-70
2022/12/14 05:45:48;;;;;;;5.70;5.18;;;13.40;45.20;;;;;;5052465;28;20539;-69
2022/12/14 05:48:14;;;;;;;5.80;5.28;;;13.40;45.20;;;;;;5053867;28;20650;-69
2022/12/14 05:50:39;;;;;;;6.65;5.50;;;13.30;45.10;;;;;;5055979;28;20190;-70
2022/12/14 05:53:07;;;;;;;5.55;5.05;;;13.30;45.20;;;;;;5056819;28;20202;-69
2022/12/14 05:55:32;;;;;;;5.38;4.88;;;13.30;45.30;;;;;;5056929;28;20179;-70
2022/12/14 05:57:58;;;;;;;6.45;5.82;;;13.20;45.10;;;;;;5056059;28;20179;-68
2022/12/14 06:00:23;;;;;;;5.68;5.18;;;13.10;45.20;;;;;;5056798;28;20202;-69
2022/12/14 06:02:49;;;;;;;5.63;5.13;;;13.10;45.30;;;;;;5056312;28;20648;-68
2022/12/14 06:05:14;;;;;;;5.85;4.70;;;13.10;45.40;;;;;;5055964;28;20182;-69
2022/12/14 06:07:40;;;;;;;8.48;5.68;;;13.10;45.40;;;;;;5056463;28;20178;-69
2022/12/14 06:10:05;;;;;;;5.63;5.00;;;13.10;45.40;;;;;;5056753;28;20250;-69
2022/12/14 06:12:31;;;;;;;5.78;5.28;;;13.10;45.50;;;;;;5055482;28;20756;-69
2022/12/14 06:14:57;;;;;;;5.13;4.63;;;13.10;45.40;;;;;;5056697;28;20649;-68
2022/12/14 06:17:22;;;;;;;5.20;4.70;;;13.20;45.40;;;;;;5056484;28;20199;-69
2022/12/14 06:19:50;;;;;;;5.28;4.75;;;13.20;45.40;;;;;;5055462;28;20590;-68
2022/12/14 06:22:17;;;;;;;5.32;4.82;;;13.30;45.30;;;;;;5056665;28;20182;-69
2022/12/14 06:24:42;;;;;;;6.15;5.55;;;13.30;45.20;;;;;;5056197;28;20191;-69
2022/12/14 06:27:08;;;;;;;5.10;4.60;;;13.30;45.20;;;;;;5055668;28;20171;-69
2022/12/14 06:29:33;;;;;;;5.32;4.85;;;13.30;45.10;;;;;;5055971;28;20518;-69
2022/12/14 06:32:00;;;;;;;6.00;5.00;;;13.30;45.00;;;;;;5056127;28;20171;-68
2022/12/14 06:34:25;;;;;;;6.15;5.55;;;13.30;45.10;;;;;;5055303;28;20712;-68
2022/12/14 06:36:51;;;;;;;5.63;5.03;;;13.20;45.20;;;;;;5055748;28;20210;-68
2022/12/14 06:39:16;;;;;;;5.00;4.50;;;13.10;45.10;;;;;;5056169;28;20250;-68
2022/12/14 06:41:42;;;;;;;5.55;5.03;;;13.10;45.20;;;;;;5055049;28;20258;-69
2022/12/14 06:44:10;;;;;;;6.07;5.47;;;13.00;45.20;;;;;;5056042;28;20645;-69
2022/12/14 06:46:35;;;;;;;5.65;5.07;;;13.00;45.30;;;;;;5054900;28;20214;-70
2022/12/14 06:49:01;;;;;;;5.63;5.00;;;13.00;45.30;;;;;;5055965;28;20203;-69
2022/12/14 06:51:26;;;;;;;6.40;5.53;;;13.00;45.30;;;;;;5055624;28;20178;-69
2022/12/14 06:53:53;;;;;;;5.15;4.63;;;13.00;45.30;;;;;;5054665;28;20703;-70
2022/12/14 06:56:19;;;;;;;5.65;5.05;;;13.10;45.30;;;;;;5055795;28;20198;-69
2022/12/14 06:58:44;;;;;;;6.10;4.80;;;13.10;45.30;;;;;;5055302;28;20210;-69
2022/12/14 07:01:12;;;;;;;6.80;5.75;;;13.20;45.30;;;;;;5053658;28;20250;-69
2022/12/14 07:03:38;;;;;;;6.03;5.43;;;13.20;45.20;;;;;;5055482;28;20244;-69
2022/12/14 07:06:05;;;;;;;5.65;5.15;;;13.20;45.20;;;;;;5055500;28;20543;-69
2022/12/14 07:08:31;;;;;;;5.82;5.20;;;13.30;45.10;;;;;;5054800;28;20209;-71
2022/12/14 07:11:00;;;;;;;7.25;5.85;;;13.30;45.10;;;;;;5055546;28;20179;-68
2022/12/14 07:13:26;;;;;;;5.57;5.07;;;13.30;45.00;;;;;;5055299;28;20226;-69
2022/12/14 07:15:52;;;;;;;6.28;5.68;;;13.30;44.90;;;;;;5054357;28;20510;-68
2022/12/14 07:18:19;;;;;;;5.90;5.30;;;13.40;44.90;;;;;;5055244;28;20207;-68
2022/12/14 07:20:54;;;;;;;5.68;5.18;;;13.40;44.80;;;;;;5055097;28;20186;-68
2022/12/14 07:23:19;;;;;;;5.60;5.10;;;13.40;44.80;;;;;;5053639;28;20577;-69
2022/12/14 07:25:45;;;;;;;5.57;5.07;;;13.50;44.70;;;;;;5055271;28;20712;-70
2022/12/14 07:28:10;;;;;;;6.90;5.65;;;13.50;44.80;;;;;;5055257;28;20525;-70
2022/12/14 07:30:36;;;;;;;6.15;5.30;;;13.50;44.70;;;;;;5054050;28;20633;-70
2022/12/14 07:33:02;;;;;;;6.22;5.63;;;13.50;44.50;;;;;;5055080;28;20179;-68
2022/12/14 07:35:27;;;;;;;5.72;5.07;;;13.50;44.60;;;;;;5055122;28;20187;-69
2022/12/14 07:37:53;;;;;;;5.95;5.38;;;13.40;44.60;;;;;;5053959;28;20170;-68
2022/12/14 07:40:18;;;;;;;6.25;5.65;;;13.40;44.70;;;;;;5054968;28;20179;-69
2022/12/14 07:42:48;;;;;;;6.25;5.65;;;13.30;44.80;;;;;;5053893;28;20175;-69
2022/12/14 07:45:13;;;;;;;6.35;5.63;;;13.30;44.90;;;;;;5054771;28;20626;-69
2022/12/14 07:47:39;;;;;;;7.20;5.75;;;13.20;44.90;;;;;;5054319;28;20182;-70
2022/12/14 07:50:05;;;;;;;6.45;5.78;;;13.20;44.90;;;;;;5053788;28;20171;-69
2022/12/14 07:52:30;;;;;;;6.45;5.72;;;13.20;44.90;;;;;;5054811;28;20183;-70
2022/12/14 07:54:56;;;;;;;6.05;5.53;;;13.20;45.00;;;;;;5053561;28;20676;-69
2022/12/14 07:57:21;;;;;;;6.05;5.45;;;13.20;44.90;;;;;;5054033;28;20178;-69
2022/12/14 07:59:48;;;;;;;6.10;5.50;;;13.20;44.80;;;;;;5054208;28;20569;-69
2022/12/14 08:02:16;;;;;;;6.90;6.20;;;13.20;44.80;;;;;;5054467;28;20270;-69
2022/12/14 08:04:42;;;;;;;6.43;5.82;;;13.30;44.80;;;;;;5053688;28;20244;-69
2022/12/14 08:07:07;;;;;;;7.13;6.03;;;13.30;44.70;;;;;;5054478;28;20195;-68
2022/12/14 08:09:33;;;;;;;6.20;5.68;;;13.30;44.70;;;;;;5054105;28;20203;-70
2022/12/14 08:11:58;;;;;;;6.07;5.47;;;13.40;44.80;;;;;;5053053;28;20214;-69
2022/12/14 08:14:24;;;;;;;6.43;5.78;;;13.40;44.60;;;;;;5054402;28;20179;-69
2022/12/14 08:16:49;;;;;;;6.78;6.07;;;13.40;44.60;;;;;;5053817;28;20171;-68
2022/12/14 08:19:15;;;;;;;6.18;5.57;;;13.40;44.60;;;;;;5053563;28;20746;-69
2022/12/14 08:21:41;;;;;;;6.13;5.53;;;13.30;44.50;;;;;;5054234;28;20175;-69
2022/12/14 08:24:10;;;;;;;6.30;5.70;;;13.30;44.60;;;;;;5054203;28;20221;-70
2022/12/14 08:26:35;;;;;;;6.50;5.85;;;13.50;44.70;;;;;;5053358;28;20262;-70
2022/12/14 08:29:01;;;;;;;6.88;5.93;;;13.10;44.50;;;;;;5053987;28;20262;-69
2022/12/14 08:31:29;;;;;;;5.82;5.30;;;13.10;44.70;;;;;;5053939;28;20270;-69
2022/12/14 08:33:55;;;;;;;7.10;6.22;;;13.00;44.60;;;;;;5052714;28;20690;-68
2022/12/14 08:36:23;;;;;;;6.80;6.07;;;13.00;44.60;;;;;;5052417;28;20179;-69
2022/12/14 08:38:56;;;;;;;6.25;5.65;;;13.10;44.70;;;;;;5053368;28;20249;-68
2022/12/14 08:41:21;;;;;;;6.38;5.78;;;13.10;44.90;;;;;;5054117;28;20179;-70
2022/12/14 08:43:51;;;;;;;6.63;6.03;;;13.10;44.80;;;;;;5053375;28;20719;-70
2022/12/14 08:46:16;;;;;;;7.32;6.63;;;13.10;45.40;;;;;;5052845;28;20680;-70
2022/12/14 08:48:42;;;;;;;6.50;5.90;;;13.20;44.70;;;;;;5053452;28;20189;-70
2022/12/14 08:51:08;;;;;;;6.50;5.90;;;13.20;44.60;;;;;;5053628;28;20632;-69
2022/12/14 08:53:34;;;;;;;6.78;6.07;;;13.30;44.60;;;;;;5052588;28;20175;-70
2022/12/14 08:56:09;;;;;;;6.95;6.25;;;13.30;44.50;;;;;;5054070;28;20171;-69
2022/12/14 08:58:35;;;;;;;7.35;6.25;;;13.40;44.50;;;;;;5053238;28;20206;-69
2022/12/14 09:01:12;;;;;;;6.30;5.72;;;13.50;44.30;;;;;;5052663;28;20167;-70
2022/12/14 09:03:41;;;;;;;7.90;6.15;;;13.60;44.20;;;;;;5053012;28;20664;-69
2022/12/14 09:06:10;;;;;;;6.93;6.22;;;13.60;44.00;;;;;;5053378;28;20190;-69
2022/12/14 09:08:35;;;;;;;7.38;6.65;;;13.70;44.10;;;;;;5052294;28;20258;-70
2022/12/14 09:11:01;;;;;;;7.85;6.05;;;13.60;44.00;;;;;;5053110;28;20317;-69
2022/12/14 09:13:27;;;;;;;7.28;6.45;;;13.60;44.10;;;;;;5053134;28;20650;-69
2022/12/14 09:16:00;;;;;;;6.95;5.90;;;13.60;44.20;;;;;;5052192;28;20171;-68
2022/12/14 09:18:26;;;;;;;7.03;6.32;;;13.50;44.20;;;;;;5053322;28;20207;-69
2022/12/14 09:20:54;;;;;;;7.60;6.85;;;13.60;44.30;;;;;;5052950;28;20178;-69
2022/12/14 09:23:24;;;;;;;7.63;6.68;;;13.60;44.30;;;;;;5052165;28;20179;-70
2022/12/14 09:26:06;;;;;;;7.18;6.53;;;13.60;44.30;;;;;;5053156;28;20237;-70
2022/12/14 09:28:34;;;;;;;7.68;6.88;;;13.60;44.30;;;;;;5052485;28;20186;-70
2022/12/14 09:31:02;;;;;;;7.20;6.50;;;13.70;44.30;;;;;;5053367;28;20261;-69
2022/12/14 09:33:28;;;;;;;7.60;6.40;;;13.70;44.30;;;;;;5053052;28;20625;-69
2022/12/14 09:35:59;;;;;;;7.55;6.80;;;13.60;44.30;;;;;;5052011;28;20209;-68
2022/12/14 09:38:25;;;;;;;8.38;7.22;;;13.60;44.40;;;;;;5053099;28;20222;-69
2022/12/14 09:40:56;;;;;;;7.88;6.68;;;13.50;44.40;;;;;;5052629;28;20544;-69
2022/12/14 09:43:38;;;;;;;8.55;7.75;;;13.40;44.40;;;;;;5052570;28;20193;-70
2022/12/14 09:46:12;;;;;;;8.27;7.47;;;13.40;44.60;;;;;;5051632;28;20211;-69
2022/12/14 09:48:38;;;;;;;8.95;7.78;;;13.30;44.50;;;;;;5051172;28;20179;-70
2022/12/14 09:51:04;;;;;;;8.02;7.22;;;13.30;44.70;;;;;;5050750;28;20656;-69
2022/12/14 09:53:29;;;;;;;7.85;7.05;;;13.20;44.70;;;;;;5051964;28;20179;-69
2022/12/14 09:55:58;;;;;;;8.98;8.07;;;13.20;44.60;;;;;;5052377;28;20171;-68
2022/12/14 09:58:27;;;;;;;7.53;6.72;;;13.20;44.70;;;;;;5052120;28;20195;-68
2022/12/14 10:01:04;;;;;;;8.95;7.60;;;13.20;44.70;;;;;;5051484;28;20225;-68
2022/12/14 10:03:41;;;;;;;7.70;6.50;;;13.20;44.70;;;;;;5051057;28;20593;-69
2022/12/14 10:06:29;;;;;;;7.25;6.57;;;13.20;44.60;;;;;;5051630;28;20278;-68
2022/12/14 10:09:12;;;;;;;8.02;7.22;;;13.20;44.60;;;;;;5052407;28;20176;-68
2022/12/14 10:11:47;;;;;;;8.48;7.57;;;13.20;44.50;;;;;;5051934;28;20183;-68
2022/12/14 10:14:39;;;;;;;7.80;7.07;;;13.10;44.50;;;;;;5051295;28;20664;-68
2022/12/14 10:17:32;;;;;;;6.97;6.20;;;13.10;44.60;;;;;;5052208;28;20175;-68
2022/12/14 10:20:19;;;;;;;7.57;6.78;;;13.10;44.60;;;;;;5051994;28;20217;-68
2022/12/14 10:22:46;;;;;;;8.25;7.03;;;13.00;44.40;;;;;;5052500;28;20195;-68
2022/12/14 10:25:21;;;;;;;8.15;7.32;;;13.00;44.50;;;;;;5050940;28;20258;-69
2022/12/14 10:27:56;;;;;;;8.25;7.20;;;13.00;44.60;;;;;;5050984;28;20668;-69
2022/12/14 10:30:21;;;;;;;9.38;7.10;;;13.00;44.60;;;;;;5051605;28;20179;-69
2022/12/14 10:32:58;;;;;;;8.55;7.47;;;13.00;44.60;;;;;;5051800;28;20579;-68
2022/12/14 10:35:29;;;;;;;8.60;7.43;;;13.00;44.60;;;;;;5054495;28;20232;-69
2022/12/14 10:38:05;;;;;;;7.57;6.60;;;13.00;44.50;;;;;;5056005;28;20176;-67
2022/12/14 10:40:31;;;;;;;7.30;6.60;;;13.00;44.50;;;;;;5054086;28;20213;-69
2022/12/14 10:43:14;;;;;;;7.03;6.32;;;13.00;44.40;;;;;;5056049;28;20179;-69
2022/12/14 10:46:09;;;;;;;7.13;6.47;;;13.00;44.40;;;;;;5054101;28;20171;-69
2022/12/14 10:48:48;;;;;;;8.25;7.45;;;13.00;44.40;;;;;;5055765;28;20697;-70
2022/12/14 10:51:33;;;;;;;7.70;6.90;;;13.00;44.40;;;;;;5055301;28;20179;-69
2022/12/14 10:54:18;;;;;;;7.18;6.47;;;13.00;44.50;;;;;;5054108;28;20300;-68
2022/12/14 10:56:44;;;;;;;7.75;6.65;;;13.00;44.40;;;;;;5055512;28;20178;-69
2022/12/14 10:59:15;;;;;;;7.45;6.63;;;12.90;44.40;;;;;;5054383;28;20207;-69
2022/12/14 11:01:41;;;;;;;7.97;7.18;;;13.00;44.50;;;;;;5054661;28;20675;-69
2022/12/14 11:04:15;;;;;;;10.02;6.97;;;13.00;44.40;;;;;;5054580;28;20258;-69
2022/12/14 11:06:41;;;;;;;8.82;7.45;;;13.00;44.40;;;;;;5053416;28;20214;-68
2022/12/14 11:09:19;;;;;;;7.10;6.40;;;13.10;44.40;;;;;;5054353;28;20207;-69
2022/12/14 11:11:45;;;;;;;7.20;6.43;;;13.10;44.40;;;;;;5055532;28;20175;-68
2022/12/14 11:14:13;;;;;;;7.65;6.85;;;13.10;44.30;;;;;;5054964;28;20209;-68
2022/12/14 11:16:40;;;;;;;6.82;6.03;;;13.10;44.40;;;;;;5053856;28;20648;-68
2022/12/14 11:19:16;;;;;;;7.60;6.50;;;13.10;44.40;;;;;;5055391;28;20222;-68
2022/12/14 11:21:42;;;;;;;7.60;6.88;;;13.00;44.40;;;;;;5053169;28;20171;-68
2022/12/14 11:24:27;;;;;;;7.45;6.75;;;13.00;44.40;;;;;;5055337;28;20179;-69
2022/12/14 11:26:56;;;;;;;7.13;6.40;;;13.00;44.40;;;;;;5054170;28;20175;-68
2022/12/14 11:29:32;;;;;;;6.90;6.25;;;13.00;44.50;;;;;;5053264;28;20254;-69
2022/12/14 11:31:57;;;;;;;7.25;6.55;;;13.00;44.40;;;;;;5053942;28;20553;-68
2022/12/14 11:34:33;;;;;;;6.75;6.03;;;13.10;44.40;;;;;;5055090;28;20175;-68
2022/12/14 11:37:17;;;;;;;6.85;6.25;;;13.10;44.40;;;;;;5053281;28;20196;-68
2022/12/14 11:39:48;;;;;;;8.75;6.95;;;13.10;44.40;;;;;;5054731;28;20298;-68
2022/12/14 11:42:20;;;;;;;6.78;6.07;;;13.10;44.40;;;;;;5053126;28;20292;-69
2022/12/14 11:44:46;;;;;;;7.03;6.32;;;13.10;44.50;;;;;;5053535;28;20206;-69
2022/12/14 11:47:32;;;;;;;7.15;6.43;;;13.10;44.50;;;;;;5053908;28;20217;-69
2022/12/14 11:49:58;;;;;;;8.15;6.45;;;13.10;44.60;;;;;;5053821;28;20183;-70
2022/12/14 11:52:36;;;;;;;7.72;6.85;;;13.10;44.70;;;;;;5054740;28;20175;-70
2022/12/14 11:55:13;;;;;;;7.45;6.65;;;13.10;44.70;;;;;;5053702;28;20182;-69
2022/12/14 11:57:51;;;;;;;8.20;6.75;;;13.00;44.70;;;;;;5053488;28;20525;-69
2022/12/14 12:00:33;;;;;;;7.53;6.65;;;13.00;44.70;;;;;;5053361;28;20677;-69
2022/12/14 12:03:06;;;;;;;8.50;7.13;;;13.10;44.80;;;;;;5053945;28;20171;-68
2022/12/14 12:05:33;;;;;;;6.78;6.07;;;13.10;44.80;;;;;;5052950;28;20241;-69
2022/12/14 12:07:59;;;;;;;8.82;7.32;;;13.10;44.70;;;;;;5054452;28;20181;-69
2022/12/14 12:10:43;;;;;;;8.00;6.80;;;13.10;44.70;;;;;;5052384;28;20180;-70
2022/12/14 12:13:46;;;;;;;7.72;6.78;;;13.10;44.90;;;;;;5053056;28;20227;-69
2022/12/14 12:16:20;;;;;;;7.20;6.50;;;13.10;44.90;;;;;;5015736;28;20270;-68
2022/12/14 12:18:53;;;;;;;7.90;7.10;;;13.10;45.00;;;;;;5046375;28;20215;-67
2022/12/14 12:21:23;;;;;;;7.75;6.72;;;13.10;45.00;;;;;;5054334;28;20659;-69
2022/12/14 12:23:53;;;;;;;7.47;6.65;;;13.10;45.00;;;;;;5053793;28;20178;-69
2022/12/14 12:26:34;;;;;;;7.95;6.97;;;13.00;45.10;;;;;;5053382;28;20175;-70
2022/12/14 12:29:17;;;;;;;8.30;6.72;;;13.10;45.20;;;;;;5052848;28;20610;-68
2022/12/14 12:32:07;;;;;;;7.88;7.07;;;13.10;45.30;;;;;;5052044;28;20171;-68
2022/12/14 12:34:40;;;;;;;7.93;7.13;;;13.10;45.30;;;;;;5053814;28;20179;-68
2022/12/14 12:37:11;;;;;;;7.80;6.55;;;13.20;45.20;;;;;;5052617;28;20175;-68
2022/12/14 12:39:36;;;;;;;7.45;6.70;;;13.20;45.30;;;;;;5053422;28;20222;-69
2022/12/14 12:42:19;;;;;;;7.35;6.60;;;13.30;45.30;;;;;;5052657;28;20171;-70
2022/12/14 12:44:59;;;;;;;7.72;6.50;;;13.30;45.40;;;;;;5052331;28;20186;-70
2022/12/14 12:47:33;;;;;;;7.25;6.53;;;13.30;45.40;;;;;;5051735;28;20577;-70
2022/12/14 12:50:05;;;;;;;7.95;6.68;;;13.30;45.60;;;;;;5053321;28;20175;-70
2022/12/14 12:52:34;;;;;;;7.95;6.90;;;13.20;45.50;;;;;;5051232;28;20321;-70
2022/12/14 12:55:08;;;;;;;7.80;6.63;;;13.20;45.70;;;;;;5052324;28;20541;-69
2022/12/14 12:57:39;;;;;;;7.97;7.18;;;13.20;46.40;;;;;;5052117;28;20201;-69
2022/12/14 13:00:06;;;;;;;7.53;6.82;;;13.20;45.70;;;;;;5051478;28;20207;-69
2022/12/14 13:02:41;;;;;;;7.03;6.07;;;13.20;45.70;;;;;;5053343;28;20269;-69
2022/12/14 13:05:11;;;;;;;7.00;6.30;;;13.20;45.70;;;;;;5052245;28;20262;-69
2022/12/14 13:07:46;;;;;;;8.77;7.07;;;13.30;45.40;;;;;;5051148;28;20305;-70
2022/12/14 13:10:31;;;;;;;7.97;7.18;;;13.40;45.30;;;;;;5052160;28;20178;-70
2022/12/14 13:13:06;;;;;;;8.15;7.35;;;13.40;45.30;;;;;;5052120;28;20242;-67
2022/12/14 13:15:34;;;;;;;6.90;5.90;;;13.40;45.20;;;;;;5052316;28;20202;-69
2022/12/14 13:18:10;;;;;;;7.50;6.78;;;13.40;45.20;;;;;;5051982;28;20175;-68
2022/12/14 13:20:35;;;;;;;7.82;7.00;;;13.40;45.40;;;;;;5051114;28;20309;-69
2022/12/14 13:23:01;;;;;;;7.90;6.43;;;13.40;45.50;;;;;;5052992;28;20175;-69